sensor_id;sensor_type;location;lat;lon;timestamp;P1;durP1;ratioP1;P2;durP2;ratioP2
49460;SDS011;35355;49.198;-0.368;2024-03-29T00:00:57;2.20;;;0.30;;
49460;SDS011;35355;49.198;-0.368;2024-03-29T00:03:23;1.48;;;0.35;;
49460;SDS011;35355;49.198;-0.368;2024-03-29T00:05:49;4.50;;;0.55;;
49460;SDS011;35355;49.198;-0.368;2024-03-29T00:08:15;1.27;;;0.30;;
49460;SDS011;35355;49.198;-0.368;2024-03-29T00:10:40;1.17;;;0.32;;
49460;SDS011;35355;49.198;-0.368;2024-03-29T00:13:05;2.97;;;0.30;;
49460;SDS011;35355;49.198;-0.368;2024-03-29T00:15:31;2.22;;;0.40;;
49460;SDS011;35355;49.198;-0.368;2024-03-29T00:17:58;0.73;;;0.25;;
49460;SDS011;35355;49.198;-0.368;2024-03-29T00:20:23;2.15;;;0.70;;
49460;SDS011;35355;49.198;-0.368;2024-03-29T00:22:49;1.63;;;0.32;;
49460;SDS011;35355;49.198;-0.368;2024-03-29T00:25:17;2.75;;;0.30;;
49460;SDS011;35355;49.198;-0.368;2024-03-29T00:27:43;2.83;;;0.30;;
49460;SDS011;35355;49.198;-0.368;2024-03-29T00:30:09;5.35;;;0.95;;
49460;SDS011;35355;49.198;-0.368;2024-03-29T00:32:35;1.80;;;0.10;;
49460;SDS011;35355;49.198;-0.368;2024-03-29T00:35:00;1.30;;;0.20;;
49460;SDS011;35355;49.198;-0.368;2024-03-29T00:37:26;1.70;;;0.82;;
49460;SDS011;35355;49.198;-0.368;2024-03-29T00:39:56;1.10;;;0.20;;
49460;SDS011;35355;49.198;-0.368;2024-03-29T00:42:22;0.85;;;0.20;;
49460;SDS011;35355;49.198;-0.368;2024-03-29T00:44:49;3.03;;;0.52;;
49460;SDS011;35355;49.198;-0.368;2024-03-29T00:47:15;1.42;;;0.35;;
49460;SDS011;35355;49.198;-0.368;2024-03-29T00:49:41;0.65;;;0.10;;
49460;SDS011;35355;49.198;-0.368;2024-03-29T00:52:09;1.08;;;0.30;;
49460;SDS011;35355;49.198;-0.368;2024-03-29T00:54:34;0.47;;;0.10;;
49460;SDS011;35355;49.198;-0.368;2024-03-29T00:57:00;2.13;;;0.20;;
49460;SDS011;35355;49.198;-0.368;2024-03-29T00:59:25;2.22;;;0.20;;
49460;SDS011;35355;49.198;-0.368;2024-03-29T01:01:51;3.33;;;0.25;;
49460;SDS011;35355;49.198;-0.368;2024-03-29T01:04:17;0.10;;;0.10;;
49460;SDS011;35355;49.198;-0.368;2024-03-29T01:06:43;1.25;;;0.13;;
49460;SDS011;35355;49.198;-0.368;2024-03-29T01:09:09;0.45;;;0.10;;
49460;SDS011;35355;49.198;-0.368;2024-03-29T01:11:38;1.75;;;0.10;;
49460;SDS011;35355;49.198;-0.368;2024-03-29T01:14:05;1.40;;;0.20;;
49460;SDS011;35355;49.198;-0.368;2024-03-29T01:16:31;0.45;;;0.10;;
49460;SDS011;35355;49.198;-0.368;2024-03-29T01:18:59;0.55;;;0.10;;
49460;SDS011;35355;49.198;-0.368;2024-03-29T01:21:31;0.13;;;0.10;;
49460;SDS011;35355;49.198;-0.368;2024-03-29T01:23:57;0.65;;;0.10;;
49460;SDS011;35355;49.198;-0.368;2024-03-29T01:26:22;0.57;;;0.10;;
49460;SDS011;35355;49.198;-0.368;2024-03-29T01:28:48;1.13;;;0.10;;
49460;SDS011;35355;49.198;-0.368;2024-03-29T01:31:13;1.02;;;0.10;;
49460;SDS011;35355;49.198;-0.368;2024-03-29T01:33:39;1.52;;;0.52;;
49460;SDS011;35355;49.198;-0.368;2024-03-29T01:36:08;0.70;;;0.10;;
49460;SDS011;35355;49.198;-0.368;2024-03-29T01:38:34;0.40;;;0.20;;
49460;SDS011;35355;49.198;-0.368;2024-03-29T01:41:02;0.65;;;0.10;;
49460;SDS011;35355;49.198;-0.368;2024-03-29T01:43:28;1.38;;;0.20;;
49460;SDS011;35355;49.198;-0.368;2024-03-29T01:45:54;1.33;;;0.20;;
49460;SDS011;35355;49.198;-0.368;2024-03-29T01:48:23;0.52;;;0.10;;
49460;SDS011;35355;49.198;-0.368;2024-03-29T01:50:51;0.77;;;0.10;;
49460;SDS011;35355;49.198;-0.368;2024-03-29T01:53:19;3.70;;;0.30;;
49460;SDS011;35355;49.198;-0.368;2024-03-29T01:55:49;0.55;;;0.10;;
49460;SDS011;35355;49.198;-0.368;2024-03-29T01:58:14;0.20;;;0.00;;
49460;SDS011;35355;49.198;-0.368;2024-03-29T02:00:49;3.08;;;0.47;;
49460;SDS011;35355;49.198;-0.368;2024-03-29T02:03:18;1.38;;;0.10;;
49460;SDS011;35355;49.198;-0.368;2024-03-29T02:05:44;1.00;;;0.10;;
49460;SDS011;35355;49.198;-0.368;2024-03-29T02:08:11;0.95;;;0.20;;
49460;SDS011;35355;49.198;-0.368;2024-03-29T02:10:37;1.33;;;0.10;;
49460;SDS011;35355;49.198;-0.368;2024-03-29T02:13:03;1.23;;;0.13;;
49460;SDS011;35355;49.198;-0.368;2024-03-29T02:15:29;0.40;;;0.35;;
49460;SDS011;35355;49.198;-0.368;2024-03-29T02:17:56;1.00;;;0.30;;
49460;SDS011;35355;49.198;-0.368;2024-03-29T02:20:26;1.35;;;0.30;;
49460;SDS011;35355;49.198;-0.368;2024-03-29T02:25:23;2.60;;;0.10;;
49460;SDS011;35355;49.198;-0.368;2024-03-29T02:27:49;0.55;;;0.10;;
49460;SDS011;35355;49.198;-0.368;2024-03-29T02:30:19;1.60;;;0.30;;
49460;SDS011;35355;49.198;-0.368;2024-03-29T02:32:45;0.88;;;0.20;;
49460;SDS011;35355;49.198;-0.368;2024-03-29T02:35:10;2.88;;;0.45;;
49460;SDS011;35355;49.198;-0.368;2024-03-29T02:37:36;1.85;;;0.63;;
49460;SDS011;35355;49.198;-0.368;2024-03-29T02:40:05;1.02;;;0.20;;
49460;SDS011;35355;49.198;-0.368;2024-03-29T02:42:31;1.02;;;0.20;;
49460;SDS011;35355;49.198;-0.368;2024-03-29T02:44:57;0.50;;;0.10;;
49460;SDS011;35355;49.198;-0.368;2024-03-29T02:47:23;0.30;;;0.10;;
49460;SDS011;35355;49.198;-0.368;2024-03-29T02:49:49;0.52;;;0.13;;
49460;SDS011;35355;49.198;-0.368;2024-03-29T02:52:14;0.45;;;0.10;;
49460;SDS011;35355;49.198;-0.368;2024-03-29T02:54:40;1.35;;;0.17;;
49460;SDS011;35355;49.198;-0.368;2024-03-29T02:57:06;1.35;;;0.30;;
49460;SDS011;35355;49.198;-0.368;2024-03-29T02:59:32;0.95;;;0.63;;
49460;SDS011;35355;49.198;-0.368;2024-03-29T03:02:01;1.98;;;0.40;;
49460;SDS011;35355;49.198;-0.368;2024-03-29T03:04:27;1.75;;;0.65;;
49460;SDS011;35355;49.198;-0.368;2024-03-29T03:06:52;2.85;;;0.20;;
49460;SDS011;35355;49.198;-0.368;2024-03-29T03:09:18;0.28;;;0.17;;
49460;SDS011;35355;49.198;-0.368;2024-03-29T03:12:02;1.15;;;0.10;;
49460;SDS011;35355;49.198;-0.368;2024-03-29T03:14:28;0.57;;;0.20;;
49460;SDS011;35355;49.198;-0.368;2024-03-29T03:16:53;0.40;;;0.10;;
49460;SDS011;35355;49.198;-0.368;2024-03-29T03:19:19;1.38;;;0.10;;
49460;SDS011;35355;49.198;-0.368;2024-03-29T03:21:44;1.42;;;0.20;;
49460;SDS011;35355;49.198;-0.368;2024-03-29T03:24:18;0.17;;;0.00;;
49460;SDS011;35355;49.198;-0.368;2024-03-29T03:26:43;0.77;;;0.10;;
49460;SDS011;35355;49.198;-0.368;2024-03-29T03:29:11;1.55;;;0.17;;
49460;SDS011;35355;49.198;-0.368;2024-03-29T03:31:37;1.13;;;0.10;;
49460;SDS011;35355;49.198;-0.368;2024-03-29T03:34:02;0.52;;;0.15;;
49460;SDS011;35355;49.198;-0.368;2024-03-29T03:36:33;2.85;;;0.30;;
49460;SDS011;35355;49.198;-0.368;2024-03-29T03:38:59;1.40;;;0.20;;
49460;SDS011;35355;49.198;-0.368;2024-03-29T03:41:27;0.40;;;0.10;;
49460;SDS011;35355;49.198;-0.368;2024-03-29T03:43:53;2.00;;;0.10;;
49460;SDS011;35355;49.198;-0.368;2024-03-29T03:46:18;0.30;;;0.20;;
49460;SDS011;35355;49.198;-0.368;2024-03-29T03:48:44;1.08;;;0.30;;
49460;SDS011;35355;49.198;-0.368;2024-03-29T03:51:09;1.23;;;0.17;;
49460;SDS011;35355;49.198;-0.368;2024-03-29T03:53:35;1.17;;;0.10;;
49460;SDS011;35355;49.198;-0.368;2024-03-29T03:56:00;0.30;;;0.15;;
49460;SDS011;35355;49.198;-0.368;2024-03-29T03:58:26;1.30;;;0.22;;
49460;SDS011;35355;49.198;-0.368;2024-03-29T04:00:52;0.10;;;0.10;;
49460;SDS011;35355;49.198;-0.368;2024-03-29T04:03:19;0.88;;;0.15;;
49460;SDS011;35355;49.198;-0.368;2024-03-29T04:05:45;0.80;;;0.10;;
49460;SDS011;35355;49.198;-0.368;2024-03-29T04:08:10;0.73;;;0.10;;
49460;SDS011;35355;49.198;-0.368;2024-03-29T04:10:39;0.82;;;0.10;;
49460;SDS011;35355;49.198;-0.368;2024-03-29T04:13:05;0.85;;;0.10;;
49460;SDS011;35355;49.198;-0.368;2024-03-29T04:15:30;1.65;;;0.20;;
49460;SDS011;35355;49.198;-0.368;2024-03-29T04:17:58;0.80;;;0.10;;
49460;SDS011;35355;49.198;-0.368;2024-03-29T04:20:24;1.00;;;0.15;;
49460;SDS011;35355;49.198;-0.368;2024-03-29T04:22:50;0.43;;;0.10;;
49460;SDS011;35355;49.198;-0.368;2024-03-29T04:25:15;0.70;;;0.10;;
49460;SDS011;35355;49.198;-0.368;2024-03-29T04:27:41;1.67;;;0.28;;
49460;SDS011;35355;49.198;-0.368;2024-03-29T04:30:07;0.08;;;0.05;;
49460;SDS011;35355;49.198;-0.368;2024-03-29T04:32:33;1.52;;;0.20;;
49460;SDS011;35355;49.198;-0.368;2024-03-29T04:34:58;0.52;;;0.20;;
49460;SDS011;35355;49.198;-0.368;2024-03-29T04:37:23;0.40;;;0.10;;
49460;SDS011;35355;49.198;-0.368;2024-03-29T04:39:49;1.15;;;0.10;;
49460;SDS011;35355;49.198;-0.368;2024-03-29T04:42:14;1.05;;;0.20;;
49460;SDS011;35355;49.198;-0.368;2024-03-29T04:44:40;1.27;;;0.30;;
49460;SDS011;35355;49.198;-0.368;2024-03-29T04:47:05;0.45;;;0.20;;
49460;SDS011;35355;49.198;-0.368;2024-03-29T04:49:31;0.60;;;0.10;;
49460;SDS011;35355;49.198;-0.368;2024-03-29T04:52:02;0.52;;;0.20;;
49460;SDS011;35355;49.198;-0.368;2024-03-29T04:54:36;0.88;;;0.40;;
49460;SDS011;35355;49.198;-0.368;2024-03-29T04:57:02;0.17;;;0.10;;
49460;SDS011;35355;49.198;-0.368;2024-03-29T04:59:31;0.73;;;0.10;;
49460;SDS011;35355;49.198;-0.368;2024-03-29T05:01:58;1.75;;;0.20;;
49460;SDS011;35355;49.198;-0.368;2024-03-29T05:04:24;1.30;;;0.10;;
49460;SDS011;35355;49.198;-0.368;2024-03-29T05:06:53;0.60;;;0.10;;
49460;SDS011;35355;49.198;-0.368;2024-03-29T05:09:27;0.25;;;0.05;;
49460;SDS011;35355;49.198;-0.368;2024-03-29T05:11:52;1.38;;;0.22;;
49460;SDS011;35355;49.198;-0.368;2024-03-29T05:14:19;0.50;;;0.10;;
49460;SDS011;35355;49.198;-0.368;2024-03-29T05:16:46;3.75;;;0.20;;
49460;SDS011;35355;49.198;-0.368;2024-03-29T05:19:12;0.75;;;0.30;;
49460;SDS011;35355;49.198;-0.368;2024-03-29T05:21:38;1.23;;;0.20;;
49460;SDS011;35355;49.198;-0.368;2024-03-29T05:24:04;1.05;;;0.10;;
49460;SDS011;35355;49.198;-0.368;2024-03-29T05:26:30;0.50;;;0.10;;
49460;SDS011;35355;49.198;-0.368;2024-03-29T05:28:56;0.32;;;0.10;;
49460;SDS011;35355;49.198;-0.368;2024-03-29T05:31:22;1.80;;;0.20;;
49460;SDS011;35355;49.198;-0.368;2024-03-29T05:33:48;3.20;;;0.22;;
49460;SDS011;35355;49.198;-0.368;2024-03-29T05:36:13;2.30;;;0.20;;
49460;SDS011;35355;49.198;-0.368;2024-03-29T05:38:39;1.60;;;0.10;;
49460;SDS011;35355;49.198;-0.368;2024-03-29T05:41:05;0.35;;;0.13;;
49460;SDS011;35355;49.198;-0.368;2024-03-29T05:43:31;0.55;;;0.15;;
49460;SDS011;35355;49.198;-0.368;2024-03-29T05:45:56;0.28;;;0.10;;
49460;SDS011;35355;49.198;-0.368;2024-03-29T05:48:22;0.95;;;0.17;;
49460;SDS011;35355;49.198;-0.368;2024-03-29T05:50:47;0.50;;;0.10;;
49460;SDS011;35355;49.198;-0.368;2024-03-29T05:53:12;5.50;;;0.40;;
49460;SDS011;35355;49.198;-0.368;2024-03-29T05:55:38;0.63;;;0.20;;
49460;SDS011;35355;49.198;-0.368;2024-03-29T05:58:04;1.90;;;0.20;;
49460;SDS011;35355;49.198;-0.368;2024-03-29T06:00:31;0.32;;;0.10;;
49460;SDS011;35355;49.198;-0.368;2024-03-29T06:02:59;1.98;;;0.47;;
49460;SDS011;35355;49.198;-0.368;2024-03-29T06:05:27;0.95;;;0.20;;
49460;SDS011;35355;49.198;-0.368;2024-03-29T06:07:54;1.10;;;0.20;;
49460;SDS011;35355;49.198;-0.368;2024-03-29T06:10:20;4.75;;;0.30;;
49460;SDS011;35355;49.198;-0.368;2024-03-29T06:12:45;0.73;;;0.10;;
49460;SDS011;35355;49.198;-0.368;2024-03-29T06:15:11;4.05;;;0.40;;
49460;SDS011;35355;49.198;-0.368;2024-03-29T06:17:55;3.55;;;0.20;;
49460;SDS011;35355;49.198;-0.368;2024-03-29T06:20:20;1.08;;;0.30;;
49460;SDS011;35355;49.198;-0.368;2024-03-29T06:22:46;3.00;;;0.65;;
49460;SDS011;35355;49.198;-0.368;2024-03-29T06:25:11;0.80;;;0.20;;
49460;SDS011;35355;49.198;-0.368;2024-03-29T06:27:37;1.98;;;0.10;;
49460;SDS011;35355;49.198;-0.368;2024-03-29T06:30:03;1.95;;;0.20;;
49460;SDS011;35355;49.198;-0.368;2024-03-29T06:32:31;1.38;;;0.30;;
49460;SDS011;35355;49.198;-0.368;2024-03-29T06:34:57;1.33;;;0.10;;
49460;SDS011;35355;49.198;-0.368;2024-03-29T06:37:23;2.90;;;0.52;;
49460;SDS011;35355;49.198;-0.368;2024-03-29T06:39:50;1.08;;;0.25;;
49460;SDS011;35355;49.198;-0.368;2024-03-29T06:42:16;1.10;;;0.20;;
49460;SDS011;35355;49.198;-0.368;2024-03-29T06:44:42;2.55;;;0.30;;
49460;SDS011;35355;49.198;-0.368;2024-03-29T06:47:08;2.30;;;0.30;;
49460;SDS011;35355;49.198;-0.368;2024-03-29T06:49:33;2.50;;;0.20;;
49460;SDS011;35355;49.198;-0.368;2024-03-29T06:51:59;1.15;;;0.28;;
49460;SDS011;35355;49.198;-0.368;2024-03-29T06:54:26;2.65;;;0.20;;
49460;SDS011;35355;49.198;-0.368;2024-03-29T06:56:52;3.50;;;0.30;;
49460;SDS011;35355;49.198;-0.368;2024-03-29T06:59:19;2.05;;;0.28;;
49460;SDS011;35355;49.198;-0.368;2024-03-29T07:01:44;4.05;;;0.40;;
49460;SDS011;35355;49.198;-0.368;2024-03-29T07:04:10;1.00;;;0.35;;
49460;SDS011;35355;49.198;-0.368;2024-03-29T07:06:35;3.63;;;0.20;;
49460;SDS011;35355;49.198;-0.368;2024-03-29T07:09:03;3.80;;;0.50;;
49460;SDS011;35355;49.198;-0.368;2024-03-29T07:11:29;2.58;;;0.47;;
49460;SDS011;35355;49.198;-0.368;2024-03-29T07:13:54;3.90;;;0.80;;
49460;SDS011;35355;49.198;-0.368;2024-03-29T07:16:20;3.17;;;0.28;;
49460;SDS011;35355;49.198;-0.368;2024-03-29T07:18:45;1.73;;;0.30;;
49460;SDS011;35355;49.198;-0.368;2024-03-29T07:21:11;4.63;;;0.40;;
49460;SDS011;35355;49.198;-0.368;2024-03-29T07:23:36;6.25;;;0.77;;
49460;SDS011;35355;49.198;-0.368;2024-03-29T07:26:02;1.38;;;0.30;;
49460;SDS011;35355;49.198;-0.368;2024-03-29T07:28:29;8.77;;;0.63;;
49460;SDS011;35355;49.198;-0.368;2024-03-29T07:30:55;3.03;;;0.32;;
49460;SDS011;35355;49.198;-0.368;2024-03-29T07:33:21;1.98;;;0.45;;
49460;SDS011;35355;49.198;-0.368;2024-03-29T07:35:53;3.05;;;0.40;;
49460;SDS011;35355;49.198;-0.368;2024-03-29T07:38:20;7.70;;;0.57;;
49460;SDS011;35355;49.198;-0.368;2024-03-29T07:40:49;4.55;;;1.15;;
49460;SDS011;35355;49.198;-0.368;2024-03-29T07:43:15;4.47;;;1.02;;
49460;SDS011;35355;49.198;-0.368;2024-03-29T07:45:41;7.03;;;0.40;;
49460;SDS011;35355;49.198;-0.368;2024-03-29T07:48:11;0.68;;;0.20;;
49460;SDS011;35355;49.198;-0.368;2024-03-29T07:50:47;5.80;;;0.80;;
49460;SDS011;35355;49.198;-0.368;2024-03-29T07:53:13;3.75;;;0.30;;
49460;SDS011;35355;49.198;-0.368;2024-03-29T07:55:39;3.60;;;0.57;;
49460;SDS011;35355;49.198;-0.368;2024-03-29T07:58:06;6.10;;;0.60;;
49460;SDS011;35355;49.198;-0.368;2024-03-29T08:00:34;2.83;;;0.38;;
49460;SDS011;35355;49.198;-0.368;2024-03-29T08:03:00;2.55;;;0.47;;
49460;SDS011;35355;49.198;-0.368;2024-03-29T08:05:29;3.33;;;0.38;;
49460;SDS011;35355;49.198;-0.368;2024-03-29T08:07:54;4.13;;;0.43;;
49460;SDS011;35355;49.198;-0.368;2024-03-29T08:10:20;2.92;;;0.60;;
49460;SDS011;35355;49.198;-0.368;2024-03-29T08:12:45;4.63;;;0.60;;
49460;SDS011;35355;49.198;-0.368;2024-03-29T08:15:10;6.38;;;0.50;;
49460;SDS011;35355;49.198;-0.368;2024-03-29T08:17:36;7.05;;;0.63;;
49460;SDS011;35355;49.198;-0.368;2024-03-29T08:20:01;6.07;;;0.73;;
49460;SDS011;35355;49.198;-0.368;2024-03-29T08:22:28;5.82;;;0.40;;
49460;SDS011;35355;49.198;-0.368;2024-03-29T08:24:53;6.28;;;0.82;;
49460;SDS011;35355;49.198;-0.368;2024-03-29T08:27:19;5.15;;;1.13;;
49460;SDS011;35355;49.198;-0.368;2024-03-29T08:29:45;4.65;;;0.57;;
49460;SDS011;35355;49.198;-0.368;2024-03-29T08:32:10;6.38;;;1.20;;
49460;SDS011;35355;49.198;-0.368;2024-03-29T08:34:36;4.45;;;0.90;;
49460;SDS011;35355;49.198;-0.368;2024-03-29T08:37:02;7.80;;;0.55;;
49460;SDS011;35355;49.198;-0.368;2024-03-29T08:39:30;4.93;;;0.45;;
49460;SDS011;35355;49.198;-0.368;2024-03-29T08:41:57;17.08;;;1.40;;
49460;SDS011;35355;49.198;-0.368;2024-03-29T08:44:29;4.65;;;0.80;;
49460;SDS011;35355;49.198;-0.368;2024-03-29T08:46:55;5.18;;;0.60;;
49460;SDS011;35355;49.198;-0.368;2024-03-29T08:49:22;5.18;;;1.08;;
49460;SDS011;35355;49.198;-0.368;2024-03-29T08:51:47;8.13;;;0.65;;
49460;SDS011;35355;49.198;-0.368;2024-03-29T08:54:13;5.07;;;0.88;;
49460;SDS011;35355;49.198;-0.368;2024-03-29T08:56:38;8.77;;;0.70;;
49460;SDS011;35355;49.198;-0.368;2024-03-29T08:59:05;6.30;;;0.75;;
49460;SDS011;35355;49.198;-0.368;2024-03-29T09:01:36;6.25;;;1.33;;
49460;SDS011;35355;49.198;-0.368;2024-03-29T09:04:03;4.43;;;0.60;;
49460;SDS011;35355;49.198;-0.368;2024-03-29T09:06:31;6.57;;;0.73;;
49460;SDS011;35355;49.198;-0.368;2024-03-29T09:08:57;10.73;;;0.60;;
49460;SDS011;35355;49.198;-0.368;2024-03-29T09:11:22;6.38;;;0.70;;
49460;SDS011;35355;49.198;-0.368;2024-03-29T09:13:48;7.80;;;0.77;;
49460;SDS011;35355;49.198;-0.368;2024-03-29T09:16:13;8.80;;;0.60;;
49460;SDS011;35355;49.198;-0.368;2024-03-29T09:18:38;6.55;;;0.70;;
49460;SDS011;35355;49.198;-0.368;2024-03-29T09:21:04;3.47;;;0.70;;
49460;SDS011;35355;49.198;-0.368;2024-03-29T09:23:29;3.20;;;0.75;;
49460;SDS011;35355;49.198;-0.368;2024-03-29T09:25:55;9.45;;;0.70;;
49460;SDS011;35355;49.198;-0.368;2024-03-29T09:28:22;5.55;;;0.95;;
49460;SDS011;35355;49.198;-0.368;2024-03-29T09:30:48;5.38;;;1.15;;
49460;SDS011;35355;49.198;-0.368;2024-03-29T09:33:13;4.20;;;0.88;;
49460;SDS011;35355;49.198;-0.368;2024-03-29T09:35:39;4.95;;;0.90;;
49460;SDS011;35355;49.198;-0.368;2024-03-29T09:38:04;4.03;;;0.50;;
49460;SDS011;35355;49.198;-0.368;2024-03-29T09:40:30;7.43;;;0.93;;
49460;SDS011;35355;49.198;-0.368;2024-03-29T09:42:56;4.00;;;0.82;;
49460;SDS011;35355;49.198;-0.368;2024-03-29T09:45:28;3.83;;;0.47;;
49460;SDS011;35355;49.198;-0.368;2024-03-29T09:48:05;4.18;;;0.45;;
49460;SDS011;35355;49.198;-0.368;2024-03-29T09:50:33;4.90;;;0.70;;
49460;SDS011;35355;49.198;-0.368;2024-03-29T09:53:00;6.57;;;0.63;;
49460;SDS011;35355;49.198;-0.368;2024-03-29T09:55:26;7.10;;;0.63;;
49460;SDS011;35355;49.198;-0.368;2024-03-29T09:57:53;15.10;;;2.70;;
49460;SDS011;35355;49.198;-0.368;2024-03-29T10:00:18;6.22;;;0.63;;
49460;SDS011;35355;49.198;-0.368;2024-03-29T10:02:44;11.73;;;2.55;;
49460;SDS011;35355;49.198;-0.368;2024-03-29T10:05:10;10.32;;;1.95;;
49460;SDS011;35355;49.198;-0.368;2024-03-29T10:07:37;9.25;;;1.25;;
49460;SDS011;35355;49.198;-0.368;2024-03-29T10:10:04;7.05;;;1.67;;
49460;SDS011;35355;49.198;-0.368;2024-03-29T10:12:29;5.35;;;1.52;;
49460;SDS011;35355;49.198;-0.368;2024-03-29T10:14:55;12.13;;;2.33;;
49460;SDS011;35355;49.198;-0.368;2024-03-29T10:17:30;8.57;;;1.90;;
49460;SDS011;35355;49.198;-0.368;2024-03-29T10:19:59;6.20;;;1.75;;
49460;SDS011;35355;49.198;-0.368;2024-03-29T10:22:25;7.25;;;1.73;;
49460;SDS011;35355;49.198;-0.368;2024-03-29T10:24:51;5.53;;;0.95;;
49460;SDS011;35355;49.198;-0.368;2024-03-29T10:27:16;4.97;;;0.32;;
49460;SDS011;35355;49.198;-0.368;2024-03-29T10:29:42;2.08;;;0.32;;
49460;SDS011;35355;49.198;-0.368;2024-03-29T10:32:07;2.72;;;0.20;;
49460;SDS011;35355;49.198;-0.368;2024-03-29T10:34:34;2.75;;;0.30;;
49460;SDS011;35355;49.198;-0.368;2024-03-29T10:37:01;4.55;;;0.63;;
49460;SDS011;35355;49.198;-0.368;2024-03-29T10:39:28;3.13;;;0.57;;
49460;SDS011;35355;49.198;-0.368;2024-03-29T10:41:54;6.00;;;0.55;;
49460;SDS011;35355;49.198;-0.368;2024-03-29T10:44:21;5.65;;;0.45;;
49460;SDS011;35355;49.198;-0.368;2024-03-29T10:46:48;3.28;;;0.40;;
49460;SDS011;35355;49.198;-0.368;2024-03-29T10:49:15;2.95;;;0.38;;
49460;SDS011;35355;49.198;-0.368;2024-03-29T10:51:42;3.53;;;0.50;;
49460;SDS011;35355;49.198;-0.368;2024-03-29T10:54:08;5.43;;;0.55;;
49460;SDS011;35355;49.198;-0.368;2024-03-29T10:56:35;9.25;;;0.68;;
49460;SDS011;35355;49.198;-0.368;2024-03-29T10:59:06;2.38;;;0.40;;
49460;SDS011;35355;49.198;-0.368;2024-03-29T11:01:39;9.88;;;0.50;;
49460;SDS011;35355;49.198;-0.368;2024-03-29T11:04:13;2.50;;;0.40;;
49460;SDS011;35355;49.198;-0.368;2024-03-29T11:06:46;5.45;;;0.40;;
49460;SDS011;35355;49.198;-0.368;2024-03-29T11:09:15;4.10;;;0.98;;
49460;SDS011;35355;49.198;-0.368;2024-03-29T11:11:43;4.30;;;0.60;;
49460;SDS011;35355;49.198;-0.368;2024-03-29T11:14:13;5.45;;;1.88;;
49460;SDS011;35355;49.198;-0.368;2024-03-29T11:16:43;4.70;;;0.65;;
49460;SDS011;35355;49.198;-0.368;2024-03-29T11:19:12;3.15;;;0.28;;
49460;SDS011;35355;49.198;-0.368;2024-03-29T11:21:39;4.53;;;0.30;;
49460;SDS011;35355;49.198;-0.368;2024-03-29T11:24:07;2.97;;;0.40;;
49460;SDS011;35355;49.198;-0.368;2024-03-29T11:26:34;3.17;;;0.50;;
49460;SDS011;35355;49.198;-0.368;2024-03-29T11:29:00;4.20;;;0.50;;
49460;SDS011;35355;49.198;-0.368;2024-03-29T11:31:27;1.95;;;0.20;;
49460;SDS011;35355;49.198;-0.368;2024-03-29T11:33:52;2.33;;;0.30;;
49460;SDS011;35355;49.198;-0.368;2024-03-29T11:36:20;0.93;;;0.17;;
49460;SDS011;35355;49.198;-0.368;2024-03-29T11:38:54;4.60;;;1.20;;
49460;SDS011;35355;49.198;-0.368;2024-03-29T11:41:24;4.75;;;0.40;;
49460;SDS011;35355;49.198;-0.368;2024-03-29T11:43:52;4.30;;;0.65;;
49460;SDS011;35355;49.198;-0.368;2024-03-29T11:46:18;5.97;;;0.52;;
49460;SDS011;35355;49.198;-0.368;2024-03-29T11:48:45;2.53;;;0.60;;
49460;SDS011;35355;49.198;-0.368;2024-03-29T11:51:17;4.05;;;0.40;;
49460;SDS011;35355;49.198;-0.368;2024-03-29T11:53:46;3.03;;;0.73;;
49460;SDS011;35355;49.198;-0.368;2024-03-29T11:56:11;1.95;;;0.38;;
49460;SDS011;35355;49.198;-0.368;2024-03-29T11:58:38;3.63;;;0.30;;
49460;SDS011;35355;49.198;-0.368;2024-03-29T12:01:04;3.97;;;0.20;;
49460;SDS011;35355;49.198;-0.368;2024-03-29T12:03:30;1.38;;;0.15;;
49460;SDS011;35355;49.198;-0.368;2024-03-29T12:05:58;3.10;;;0.40;;
49460;SDS011;35355;49.198;-0.368;2024-03-29T12:08:27;3.80;;;0.30;;
49460;SDS011;35355;49.198;-0.368;2024-03-29T12:10:58;3.03;;;0.32;;
49460;SDS011;35355;49.198;-0.368;2024-03-29T12:13:25;4.72;;;0.60;;
49460;SDS011;35355;49.198;-0.368;2024-03-29T12:15:51;1.75;;;0.30;;
49460;SDS011;35355;49.198;-0.368;2024-03-29T12:18:18;2.08;;;0.30;;
49460;SDS011;35355;49.198;-0.368;2024-03-29T12:20:45;2.05;;;0.63;;
49460;SDS011;35355;49.198;-0.368;2024-03-29T12:23:15;2.88;;;0.30;;
49460;SDS011;35355;49.198;-0.368;2024-03-29T12:25:42;3.58;;;0.68;;
49460;SDS011;35355;49.198;-0.368;2024-03-29T12:28:09;5.45;;;0.75;;
49460;SDS011;35355;49.198;-0.368;2024-03-29T12:30:35;2.33;;;0.32;;
49460;SDS011;35355;49.198;-0.368;2024-03-29T12:35:32;3.92;;;0.40;;
49460;SDS011;35355;49.198;-0.368;2024-03-29T12:38:02;5.03;;;0.60;;
49460;SDS011;35355;49.198;-0.368;2024-03-29T12:40:28;2.10;;;0.32;;
49460;SDS011;35355;49.198;-0.368;2024-03-29T12:43:01;2.88;;;0.50;;
49460;SDS011;35355;49.198;-0.368;2024-03-29T12:45:29;2.92;;;0.30;;
49460;SDS011;35355;49.198;-0.368;2024-03-29T12:47:55;4.07;;;0.63;;
49460;SDS011;35355;49.198;-0.368;2024-03-29T12:50:25;4.65;;;0.65;;
49460;SDS011;35355;49.198;-0.368;2024-03-29T12:52:53;4.60;;;0.52;;
49460;SDS011;35355;49.198;-0.368;2024-03-29T12:55:23;4.88;;;0.40;;
49460;SDS011;35355;49.198;-0.368;2024-03-29T12:57:50;10.98;;;0.43;;
49460;SDS011;35355;49.198;-0.368;2024-03-29T13:00:18;3.40;;;0.25;;
49460;SDS011;35355;49.198;-0.368;2024-03-29T13:02:45;1.48;;;0.30;;
49460;SDS011;35355;49.198;-0.368;2024-03-29T13:05:10;1.08;;;0.28;;
49460;SDS011;35355;49.198;-0.368;2024-03-29T13:07:36;3.60;;;0.40;;
49460;SDS011;35355;49.198;-0.368;2024-03-29T13:10:02;2.72;;;0.55;;
49460;SDS011;35355;49.198;-0.368;2024-03-29T13:12:31;4.40;;;0.40;;
49460;SDS011;35355;49.198;-0.368;2024-03-29T13:15:01;3.20;;;0.10;;
49460;SDS011;35355;49.198;-0.368;2024-03-29T13:17:30;2.33;;;0.47;;
49460;SDS011;35355;49.198;-0.368;2024-03-29T13:19:56;1.52;;;0.38;;
49460;SDS011;35355;49.198;-0.368;2024-03-29T13:22:22;3.75;;;0.65;;
49460;SDS011;35355;49.198;-0.368;2024-03-29T13:24:47;3.33;;;0.10;;
49460;SDS011;35355;49.198;-0.368;2024-03-29T13:27:13;2.47;;;0.38;;
49460;SDS011;35355;49.198;-0.368;2024-03-29T13:29:38;2.78;;;0.35;;
49460;SDS011;35355;49.198;-0.368;2024-03-29T13:32:04;2.20;;;0.22;;
49460;SDS011;35355;49.198;-0.368;2024-03-29T13:34:30;4.07;;;0.40;;
49460;SDS011;35355;49.198;-0.368;2024-03-29T13:36:55;3.38;;;0.25;;
49460;SDS011;35355;49.198;-0.368;2024-03-29T13:39:21;2.90;;;0.25;;
49460;SDS011;35355;49.198;-0.368;2024-03-29T13:41:48;2.55;;;0.20;;
49460;SDS011;35355;49.198;-0.368;2024-03-29T13:44:14;5.00;;;1.23;;
49460;SDS011;35355;49.198;-0.368;2024-03-29T13:46:42;3.78;;;0.28;;
49460;SDS011;35355;49.198;-0.368;2024-03-29T13:49:08;2.17;;;0.30;;
49460;SDS011;35355;49.198;-0.368;2024-03-29T13:51:34;2.55;;;0.55;;
49460;SDS011;35355;49.198;-0.368;2024-03-29T13:54:00;2.97;;;0.30;;
49460;SDS011;35355;49.198;-0.368;2024-03-29T13:56:26;3.10;;;0.20;;
49460;SDS011;35355;49.198;-0.368;2024-03-29T13:58:51;1.50;;;0.20;;
49460;SDS011;35355;49.198;-0.368;2024-03-29T14:01:17;6.60;;;0.90;;
49460;SDS011;35355;49.198;-0.368;2024-03-29T14:03:42;3.30;;;0.52;;
49460;SDS011;35355;49.198;-0.368;2024-03-29T14:06:08;2.60;;;0.35;;
49460;SDS011;35355;49.198;-0.368;2024-03-29T14:08:34;4.25;;;0.65;;
49460;SDS011;35355;49.198;-0.368;2024-03-29T14:11:01;4.50;;;0.60;;
49460;SDS011;35355;49.198;-0.368;2024-03-29T14:13:27;5.28;;;0.55;;
49460;SDS011;35355;49.198;-0.368;2024-03-29T14:15:53;2.03;;;0.60;;
49460;SDS011;35355;49.198;-0.368;2024-03-29T14:18:19;4.13;;;0.63;;
49460;SDS011;35355;49.198;-0.368;2024-03-29T14:20:44;2.75;;;0.20;;
49460;SDS011;35355;49.198;-0.368;2024-03-29T14:23:10;4.95;;;0.63;;
49460;SDS011;35355;49.198;-0.368;2024-03-29T14:25:39;2.95;;;0.30;;
49460;SDS011;35355;49.198;-0.368;2024-03-29T14:28:05;6.38;;;0.57;;
49460;SDS011;35355;49.198;-0.368;2024-03-29T14:30:31;4.72;;;0.40;;
49460;SDS011;35355;49.198;-0.368;2024-03-29T14:32:56;4.30;;;0.30;;
49460;SDS011;35355;49.198;-0.368;2024-03-29T14:35:22;6.90;;;0.95;;